sensor_id;sensor_type;location;lat;lon;timestamp;temperature;humidity
59025;DHT22;44806;48.008;13.666;2023-05-18T00:01:58;10.10;99.90
59025;DHT22;44806;48.008;13.666;2023-05-18T00:04:25;10.10;99.90
59025;DHT22;44806;48.008;13.666;2023-05-18T00:06:53;10.10;99.90
59025;DHT22;44806;48.008;13.666;2023-05-18T00:09:23;10.20;99.90
59025;DHT22;44806;48.008;13.666;2023-05-18T00:11:52;10.10;99.90
59025;DHT22;44806;48.008;13.666;2023-05-18T00:14:19;10.10;99.90
59025;DHT22;44806;48.008;13.666;2023-05-18T00:16:47;10.10;99.90
59025;DHT22;44806;48.008;13.666;2023-05-18T00:19:14;10.10;99.90
59025;DHT22;44806;48.008;13.666;2023-05-18T00:21:41;10.10;99.90
59025;DHT22;44806;48.008;13.666;2023-05-18T00:24:08;10.10;99.90
59025;DHT22;44806;48.008;13.666;2023-05-18T00:26:36;10.10;99.90
59025;DHT22;44806;48.008;13.666;2023-05-18T00:29:05;10.20;99.90
59025;DHT22;44806;48.008;13.666;2023-05-18T00:31:33;10.20;99.90
59025;DHT22;44806;48.008;13.666;2023-05-18T00:34:01;10.20;99.90
59025;DHT22;44806;48.008;13.666;2023-05-18T00:36:29;10.20;99.90
59025;DHT22;44806;48.008;13.666;2023-05-18T00:38:56;10.30;99.90
59025;DHT22;44806;48.008;13.666;2023-05-18T00:41:24;10.20;99.90
59025;DHT22;44806;48.008;13.666;2023-05-18T00:43:51;10.20;99.90
59025;DHT22;44806;48.008;13.666;2023-05-18T00:46:20;10.20;99.90
59025;DHT22;44806;48.008;13.666;2023-05-18T00:48:47;10.20;99.90
59025;DHT22;44806;48.008;13.666;2023-05-18T00:51:15;10.20;99.90
59025;DHT22;44806;48.008;13.666;2023-05-18T00:53:42;10.20;99.90
59025;DHT22;44806;48.008;13.666;2023-05-18T00:56:10;10.20;99.90
59025;DHT22;44806;48.008;13.666;2023-05-18T00:58:37;10.20;99.90
59025;DHT22;44806;48.008;13.666;2023-05-18T01:01:04;10.20;99.90
59025;DHT22;44806;48.008;13.666;2023-05-18T01:03:33;10.20;99.90
59025;DHT22;44806;48.008;13.666;2023-05-18T01:06:03;10.20;99.90
59025;DHT22;44806;48.008;13.666;2023-05-18T01:08:31;10.10;99.90
59025;DHT22;44806;48.008;13.666;2023-05-18T01:11:05;10.10;99.90
59025;DHT22;44806;48.008;13.666;2023-05-18T01:13:38;10.10;99.90
59025;DHT22;44806;48.008;13.666;2023-05-18T01:16:09;10.20;99.90
59025;DHT22;44806;48.008;13.666;2023-05-18T01:18:44;10.10;99.90
59025;DHT22;44806;48.008;13.666;2023-05-18T01:21:20;10.00;99.90
59025;DHT22;44806;48.008;13.666;2023-05-18T01:24:00;9.80;99.90
59025;DHT22;44806;48.008;13.666;2023-05-18T01:26:33;9.80;99.90
59025;DHT22;44806;48.008;13.666;2023-05-18T01:29:05;9.70;99.90
59025;DHT22;44806;48.008;13.666;2023-05-18T01:31:33;9.80;99.90
59025;DHT22;44806;48.008;13.666;2023-05-18T01:34:00;9.80;99.90
59025;DHT22;44806;48.008;13.666;2023-05-18T01:36:27;9.90;99.90
59025;DHT22;44806;48.008;13.666;2023-05-18T01:38:54;9.90;99.90
59025;DHT22;44806;48.008;13.666;2023-05-18T01:41:26;9.90;99.90
59025;DHT22;44806;48.008;13.666;2023-05-18T01:44:00;10.00;99.90
59025;DHT22;44806;48.008;13.666;2023-05-18T01:46:35;10.00;99.90
59025;DHT22;44806;48.008;13.666;2023-05-18T01:49:10;10.00;99.90
59025;DHT22;44806;48.008;13.666;2023-05-18T01:51:43;10.00;99.90
59025;DHT22;44806;48.008;13.666;2023-05-18T01:54:10;10.00;99.90
59025;DHT22;44806;48.008;13.666;2023-05-18T01:56:39;10.00;99.90
59025;DHT22;44806;48.008;13.666;2023-05-18T01:59:07;9.90;99.90
59025;DHT22;44806;48.008;13.666;2023-05-18T02:01:35;9.90;99.90
59025;DHT22;44806;48.008;13.666;2023-05-18T02:04:06;10.00;99.90
59025;DHT22;44806;48.008;13.666;2023-05-18T02:06:33;10.00;99.90
59025;DHT22;44806;48.008;13.666;2023-05-18T02:09:01;10.00;99.90
59025;DHT22;44806;48.008;13.666;2023-05-18T02:11:28;10.00;99.90
59025;DHT22;44806;48.008;13.666;2023-05-18T02:13:55;10.00;99.90
59025;DHT22;44806;48.008;13.666;2023-05-18T02:16:23;10.10;99.90
59025;DHT22;44806;48.008;13.666;2023-05-18T02:18:50;10.00;99.90
59025;DHT22;44806;48.008;13.666;2023-05-18T02:21:18;10.00;99.90
59025;DHT22;44806;48.008;13.666;2023-05-18T02:23:45;10.00;99.90
59025;DHT22;44806;48.008;13.666;2023-05-18T02:26:11;10.00;99.90
59025;DHT22;44806;48.008;13.666;2023-05-18T02:28:38;10.00;99.90
59025;DHT22;44806;48.008;13.666;2023-05-18T02:31:06;10.00;99.90
59025;DHT22;44806;48.008;13.666;2023-05-18T02:33:35;10.00;99.90
59025;DHT22;44806;48.008;13.666;2023-05-18T02:36:06;10.00;99.90
59025;DHT22;44806;48.008;13.666;2023-05-18T02:38:35;10.00;99.90
59025;DHT22;44806;48.008;13.666;2023-05-18T02:41:02;10.00;99.90
59025;DHT22;44806;48.008;13.666;2023-05-18T02:43:29;10.00;99.90
59025;DHT22;44806;48.008;13.666;2023-05-18T02:45:56;10.00;99.90
59025;DHT22;44806;48.008;13.666;2023-05-18T02:48:23;10.00;99.90
59025;DHT22;44806;48.008;13.666;2023-05-18T02:50:52;10.00;99.90
59025;DHT22;44806;48.008;13.666;2023-05-18T02:53:19;10.00;99.90
59025;DHT22;44806;48.008;13.666;2023-05-18T02:55:46;10.00;99.90
59025;DHT22;44806;48.008;13.666;2023-05-18T02:58:14;10.00;99.90
59025;DHT22;44806;48.008;13.666;2023-05-18T03:00:41;10.00;99.90
59025;DHT22;44806;48.008;13.666;2023-05-18T03:03:08;10.00;99.90
59025;DHT22;44806;48.008;13.666;2023-05-18T03:05:40;10.00;99.90
59025;DHT22;44806;48.008;13.666;2023-05-18T03:08:09;9.90;99.90
59025;DHT22;44806;48.008;13.666;2023-05-18T03:10:36;9.90;99.90
59025;DHT22;44806;48.008;13.666;2023-05-18T03:13:03;9.90;99.90
59025;DHT22;44806;48.008;13.666;2023-05-18T03:15:30;9.90;99.90
59025;DHT22;44806;48.008;13.666;2023-05-18T03:17:57;9.90;99.90
59025;DHT22;44806;48.008;13.666;2023-05-18T03:20:25;9.80;99.90
59025;DHT22;44806;48.008;13.666;2023-05-18T03:22:52;9.70;99.90
59025;DHT22;44806;48.008;13.666;2023-05-18T03:25:21;9.60;99.90
59025;DHT22;44806;48.008;13.666;2023-05-18T03:27:50;9.60;99.90
59025;DHT22;44806;48.008;13.666;2023-05-18T03:30:17;9.60;99.90
59025;DHT22;44806;48.008;13.666;2023-05-18T03:32:44;9.60;99.90
59025;DHT22;44806;48.008;13.666;2023-05-18T03:35:11;9.60;99.90
59025;DHT22;44806;48.008;13.666;2023-05-18T03:37:39;9.70;99.90
59025;DHT22;44806;48.008;13.666;2023-05-18T03:40:11;9.70;99.90
59025;DHT22;44806;48.008;13.666;2023-05-18T03:42:39;9.70;99.90
59025;DHT22;44806;48.008;13.666;2023-05-18T03:45:07;9.80;99.90
59025;DHT22;44806;48.008;13.666;2023-05-18T03:47:35;9.70;99.90
59025;DHT22;44806;48.008;13.666;2023-05-18T03:50:02;9.80;99.90
59025;DHT22;44806;48.008;13.666;2023-05-18T03:52:30;9.90;99.90
59025;DHT22;44806;48.008;13.666;2023-05-18T03:54:59;9.80;99.90
59025;DHT22;44806;48.008;13.666;2023-05-18T03:57:27;9.70;99.90
59025;DHT22;44806;48.008;13.666;2023-05-18T03:59:56;9.80;99.90
59025;DHT22;44806;48.008;13.666;2023-05-18T04:02:23;9.80;99.90
59025;DHT22;44806;48.008;13.666;2023-05-18T04:04:50;9.80;99.90
59025;DHT22;44806;48.008;13.666;2023-05-18T04:07:18;9.80;99.90
59025;DHT22;44806;48.008;13.666;2023-05-18T04:09:49;9.80;99.90
59025;DHT22;44806;48.008;13.666;2023-05-18T04:12:16;9.80;99.90
59025;DHT22;44806;48.008;13.666;2023-05-18T04:14:43;9.80;99.90
59025;DHT22;44806;48.008;13.666;2023-05-18T04:17:15;9.80;99.90
59025;DHT22;44806;48.008;13.666;2023-05-18T04:19:42;9.80;99.90
59025;DHT22;44806;48.008;13.666;2023-05-18T04:22:09;9.80;99.90
59025;DHT22;44806;48.008;13.666;2023-05-18T04:24:36;9.80;99.90
59025;DHT22;44806;48.008;13.666;2023-05-18T04:27:06;9.80;99.90
59025;DHT22;44806;48.008;13.666;2023-05-18T04:29:34;9.80;99.90
59025;DHT22;44806;48.008;13.666;2023-05-18T04:32:03;9.80;99.90
59025;DHT22;44806;48.008;13.666;2023-05-18T04:34:34;9.80;99.90
59025;DHT22;44806;48.008;13.666;2023-05-18T04:37:02;9.90;99.90
59025;DHT22;44806;48.008;13.666;2023-05-18T04:39:30;9.90;99.90
59025;DHT22;44806;48.008;13.666;2023-05-18T04:41:57;9.90;99.90
59025;DHT22;44806;48.008;13.666;2023-05-18T04:44:25;9.90;99.90
59025;DHT22;44806;48.008;13.666;2023-05-18T04:46:53;9.80;99.90
59025;DHT22;44806;48.008;13.666;2023-05-18T04:49:20;9.80;99.90
59025;DHT22;44806;48.008;13.666;2023-05-18T04:51:49;9.90;99.90
59025;DHT22;44806;48.008;13.666;2023-05-18T04:54:21;9.90;99.90
59025;DHT22;44806;48.008;13.666;2023-05-18T04:56:48;9.90;99.90
59025;DHT22;44806;48.008;13.666;2023-05-18T04:59:15;9.90;99.90
59025;DHT22;44806;48.008;13.666;2023-05-18T05:01:42;9.80;99.90
59025;DHT22;44806;48.008;13.666;2023-05-18T05:04:09;9.90;99.90
59025;DHT22;44806;48.008;13.666;2023-05-18T05:06:36;9.90;99.90
59025;DHT22;44806;48.008;13.666;2023-05-18T05:09:04;9.90;99.90
59025;DHT22;44806;48.008;13.666;2023-05-18T05:11:31;10.00;99.90
59025;DHT22;44806;48.008;13.666;2023-05-18T05:14:00;10.00;99.90
59025;DHT22;44806;48.008;13.666;2023-05-18T05:16:27;10.00;99.90
59025;DHT22;44806;48.008;13.666;2023-05-18T05:18:54;10.00;99.90
59025;DHT22;44806;48.008;13.666;2023-05-18T05:21:21;10.10;99.90
59025;DHT22;44806;48.008;13.666;2023-05-18T05:23:48;10.10;99.90
59025;DHT22;44806;48.008;13.666;2023-05-18T05:26:16;10.10;99.90
59025;DHT22;44806;48.008;13.666;2023-05-18T05:28:43;10.20;99.90
59025;DHT22;44806;48.008;13.666;2023-05-18T05:31:10;10.20;99.90
59025;DHT22;44806;48.008;13.666;2023-05-18T05:33:37;10.30;99.90
59025;DHT22;44806;48.008;13.666;2023-05-18T05:36:04;10.30;99.90
59025;DHT22;44806;48.008;13.666;2023-05-18T05:38:32;10.20;99.90
59025;DHT22;44806;48.008;13.666;2023-05-18T05:41:00;10.30;99.90
59025;DHT22;44806;48.008;13.666;2023-05-18T05:43:28;10.30;99.90
59025;DHT22;44806;48.008;13.666;2023-05-18T05:45:55;10.40;99.90
59025;DHT22;44806;48.008;13.666;2023-05-18T05:48:22;10.40;99.90
59025;DHT22;44806;48.008;13.666;2023-05-18T05:50:49;10.40;99.90
59025;DHT22;44806;48.008;13.666;2023-05-18T05:53:16;10.40;99.90
59025;DHT22;44806;48.008;13.666;2023-05-18T05:55:44;10.50;99.90
59025;DHT22;44806;48.008;13.666;2023-05-18T05:58:11;10.50;99.90
59025;DHT22;44806;48.008;13.666;2023-05-18T06:00:39;10.50;99.90
59025;DHT22;44806;48.008;13.666;2023-05-18T06:03:07;10.50;99.90
59025;DHT22;44806;48.008;13.666;2023-05-18T06:05:34;10.60;99.90
59025;DHT22;44806;48.008;13.666;2023-05-18T06:08:01;10.70;99.90
59025;DHT22;44806;48.008;13.666;2023-05-18T06:10:28;10.80;99.90
59025;DHT22;44806;48.008;13.666;2023-05-18T06:12:55;11.00;99.90
59025;DHT22;44806;48.008;13.666;2023-05-18T06:15:23;11.00;99.90
59025;DHT22;44806;48.008;13.666;2023-05-18T06:17:51;11.10;99.90
59025;DHT22;44806;48.008;13.666;2023-05-18T06:20:18;11.20;99.90
59025;DHT22;44806;48.008;13.666;2023-05-18T06:22:45;11.20;99.90
59025;DHT22;44806;48.008;13.666;2023-05-18T06:25:12;11.20;99.90
59025;DHT22;44806;48.008;13.666;2023-05-18T06:27:40;11.30;99.90
59025;DHT22;44806;48.008;13.666;2023-05-18T06:30:09;11.40;99.90
59025;DHT22;44806;48.008;13.666;2023-05-18T06:32:36;11.40;99.90
59025;DHT22;44806;48.008;13.666;2023-05-18T06:35:05;11.50;99.90
59025;DHT22;44806;48.008;13.666;2023-05-18T06:37:33;11.50;99.90
59025;DHT22;44806;48.008;13.666;2023-05-18T06:40:00;11.50;99.90
59025;DHT22;44806;48.008;13.666;2023-05-18T06:42:27;11.60;99.90
59025;DHT22;44806;48.008;13.666;2023-05-18T06:44:54;11.60;99.90
59025;DHT22;44806;48.008;13.666;2023-05-18T06:47:21;11.70;99.90
59025;DHT22;44806;48.008;13.666;2023-05-18T06:49:48;11.80;99.90
59025;DHT22;44806;48.008;13.666;2023-05-18T06:52:17;11.70;99.90
59025;DHT22;44806;48.008;13.666;2023-05-18T06:54:43;11.70;99.90
59025;DHT22;44806;48.008;13.666;2023-05-18T06:57:10;11.90;99.90
59025;DHT22;44806;48.008;13.666;2023-05-18T06:59:37;11.90;99.90
59025;DHT22;44806;48.008;13.666;2023-05-18T07:02:04;12.00;99.90
59025;DHT22;44806;48.008;13.666;2023-05-18T07:04:31;12.00;99.90
59025;DHT22;44806;48.008;13.666;2023-05-18T07:06:58;12.00;99.90
59025;DHT22;44806;48.008;13.666;2023-05-18T07:09:26;12.10;99.90
59025;DHT22;44806;48.008;13.666;2023-05-18T07:11:53;12.10;99.90
59025;DHT22;44806;48.008;13.666;2023-05-18T07:14:20;12.10;99.90
59025;DHT22;44806;48.008;13.666;2023-05-18T07:16:47;12.00;99.90
59025;DHT22;44806;48.008;13.666;2023-05-18T07:19:14;12.10;99.90
59025;DHT22;44806;48.008;13.666;2023-05-18T07:21:41;12.10;99.90
59025;DHT22;44806;48.008;13.666;2023-05-18T07:24:08;12.10;99.90
59025;DHT22;44806;48.008;13.666;2023-05-18T07:26:36;12.10;99.90
59025;DHT22;44806;48.008;13.666;2023-05-18T07:29:03;12.20;99.90
59025;DHT22;44806;48.008;13.666;2023-05-18T07:31:30;12.20;99.90
59025;DHT22;44806;48.008;13.666;2023-05-18T07:33:57;12.20;99.90
59025;DHT22;44806;48.008;13.666;2023-05-18T07:36:23;12.30;99.90
59025;DHT22;44806;48.008;13.666;2023-05-18T07:38:53;12.30;99.90
59025;DHT22;44806;48.008;13.666;2023-05-18T07:41:20;12.30;99.90
59025;DHT22;44806;48.008;13.666;2023-05-18T07:43:49;12.40;99.90
59025;DHT22;44806;48.008;13.666;2023-05-18T07:46:17;12.50;99.90
59025;DHT22;44806;48.008;13.666;2023-05-18T07:48:44;12.50;99.90
59025;DHT22;44806;48.008;13.666;2023-05-18T07:51:11;12.40;99.90
59025;DHT22;44806;48.008;13.666;2023-05-18T07:53:38;12.40;99.90
59025;DHT22;44806;48.008;13.666;2023-05-18T07:56:05;12.30;99.90
59025;DHT22;44806;48.008;13.666;2023-05-18T07:58:33;12.30;99.90
59025;DHT22;44806;48.008;13.666;2023-05-18T08:01:01;12.30;99.90
59025;DHT22;44806;48.008;13.666;2023-05-18T08:03:28;12.30;99.90
59025;DHT22;44806;48.008;13.666;2023-05-18T08:05:55;12.40;99.90
59025;DHT22;44806;48.008;13.666;2023-05-18T08:08:22;12.50;99.90
59025;DHT22;44806;48.008;13.666;2023-05-18T08:10:50;12.60;99.90
59025;DHT22;44806;48.008;13.666;2023-05-18T08:13:17;12.70;99.90
59025;DHT22;44806;48.008;13.666;2023-05-18T08:15:44;12.80;99.90
59025;DHT22;44806;48.008;13.666;2023-05-18T08:18:13;12.80;99.90
59025;DHT22;44806;48.008;13.666;2023-05-18T08:20:40;12.60;99.90
59025;DHT22;44806;48.008;13.666;2023-05-18T08:23:06;12.70;99.90
59025;DHT22;44806;48.008;13.666;2023-05-18T08:25:33;12.60;99.90
59025;DHT22;44806;48.008;13.666;2023-05-18T08:28:00;12.50;99.90
59025;DHT22;44806;48.008;13.666;2023-05-18T08:30:27;12.40;99.90
59025;DHT22;44806;48.008;13.666;2023-05-18T08:32:54;12.40;99.90
59025;DHT22;44806;48.008;13.666;2023-05-18T08:35:23;12.40;99.90
59025;DHT22;44806;48.008;13.666;2023-05-18T08:37:50;12.40;99.90
59025;DHT22;44806;48.008;13.666;2023-05-18T08:40:17;12.50;99.90
59025;DHT22;44806;48.008;13.666;2023-05-18T08:42:50;12.60;99.90
59025;DHT22;44806;48.008;13.666;2023-05-18T08:45:21;12.60;99.90
59025;DHT22;44806;48.008;13.666;2023-05-18T08:47:49;12.70;99.90
59025;DHT22;44806;48.008;13.666;2023-05-18T08:50:19;12.70;99.90
59025;DHT22;44806;48.008;13.666;2023-05-18T08:52:53;12.80;99.90
59025;DHT22;44806;48.008;13.666;2023-05-18T08:55:22;12.80;99.90
59025;DHT22;44806;48.008;13.666;2023-05-18T08:57:51;12.90;99.90
59025;DHT22;44806;48.008;13.666;2023-05-18T09:00:21;12.90;99.90
59025;DHT22;44806;48.008;13.666;2023-05-18T09:02:48;13.00;99.90
59025;DHT22;44806;48.008;13.666;2023-05-18T09:05:16;13.00;99.90
59025;DHT22;44806;48.008;13.666;2023-05-18T09:07:43;13.00;99.90
59025;DHT22;44806;48.008;13.666;2023-05-18T09:10:13;13.10;99.90
59025;DHT22;44806;48.008;13.666;2023-05-18T09:12:42;13.10;99.90
59025;DHT22;44806;48.008;13.666;2023-05-18T09:15:11;13.00;99.90
59025;DHT22;44806;48.008;13.666;2023-05-18T09:17:39;13.00;99.90
59025;DHT22;44806;48.008;13.666;2023-05-18T09:20:07;13.00;99.90
59025;DHT22;44806;48.008;13.666;2023-05-18T09:22:35;13.10;99.90
59025;DHT22;44806;48.008;13.666;2023-05-18T09:25:08;13.20;99.90
59025;DHT22;44806;48.008;13.666;2023-05-18T09:27:36;13.10;99.90
59025;DHT22;44806;48.008;13.666;2023-05-18T09:30:08;13.10;99.90
59025;DHT22;44806;48.008;13.666;2023-05-18T09:32:35;13.20;99.90
59025;DHT22;44806;48.008;13.666;2023-05-18T09:35:03;13.20;99.90
59025;DHT22;44806;48.008;13.666;2023-05-18T09:37:32;13.20;99.90
59025;DHT22;44806;48.008;13.666;2023-05-18T09:39:59;13.20;99.90
59025;DHT22;44806;48.008;13.666;2023-05-18T09:42:31;13.40;99.90
59025;DHT22;44806;48.008;13.666;2023-05-18T09:45:02;13.40;99.90
59025;DHT22;44806;48.008;13.666;2023-05-18T09:47:29;13.30;99.90
59025;DHT22;44806;48.008;13.666;2023-05-18T09:49:56;13.30;99.90
59025;DHT22;44806;48.008;13.666;2023-05-18T09:52:23;13.10;99.90
59025;DHT22;44806;48.008;13.666;2023-05-18T09:54:57;13.10;99.90
59025;DHT22;44806;48.008;13.666;2023-05-18T09:57:25;13.20;99.90
59025;DHT22;44806;48.008;13.666;2023-05-18T09:59:55;13.10;99.90
59025;DHT22;44806;48.008;13.666;2023-05-18T10:02:24;13.00;99.90
59025;DHT22;44806;48.008;13.666;2023-05-18T10:04:51;13.00;99.90
59025;DHT22;44806;48.008;13.666;2023-05-18T10:07:18;13.10;99.90
59025;DHT22;44806;48.008;13.666;2023-05-18T10:09:45;13.10;99.90
59025;DHT22;44806;48.008;13.666;2023-05-18T10:12:13;13.10;99.90
59025;DHT22;44806;48.008;13.666;2023-05-18T10:14:41;13.20;99.90
59025;DHT22;44806;48.008;13.666;2023-05-18T10:17:10;13.30;99.90
59025;DHT22;44806;48.008;13.666;2023-05-18T10:19:39;13.30;99.90
59025;DHT22;44806;48.008;13.666;2023-05-18T10:22:08;13.20;99.90
59025;DHT22;44806;48.008;13.666;2023-05-18T10:24:38;13.30;99.90
59025;DHT22;44806;48.008;13.666;2023-05-18T10:27:08;13.30;99.90
59025;DHT22;44806;48.008;13.666;2023-05-18T10:29:36;13.10;99.90
59025;DHT22;44806;48.008;13.666;2023-05-18T10:32:04;13.00;99.90
59025;DHT22;44806;48.008;13.666;2023-05-18T10:34:32;13.10;99.90
59025;DHT22;44806;48.008;13.666;2023-05-18T10:37:01;13.30;99.90
59025;DHT22;44806;48.008;13.666;2023-05-18T10:39:30;13.40;99.90
59025;DHT22;44806;48.008;13.666;2023-05-18T10:41:59;13.40;99.90
59025;DHT22;44806;48.008;13.666;2023-05-18T10:44:28;13.60;99.90
59025;DHT22;44806;48.008;13.666;2023-05-18T10:46:56;13.60;99.90
59025;DHT22;44806;48.008;13.666;2023-05-18T10:49:25;13.60;99.90
59025;DHT22;44806;48.008;13.666;2023-05-18T10:51:53;13.60;99.90
59025;DHT22;44806;48.008;13.666;2023-05-18T10:54:21;13.50;99.90
59025;DHT22;44806;48.008;13.666;2023-05-18T10:56:51;13.60;99.90
59025;DHT22;44806;48.008;13.666;2023-05-18T10:59:19;13.60;99.10
59025;DHT22;44806;48.008;13.666;2023-05-18T11:01:49;13.60;99.30
59025;DHT22;44806;48.008;13.666;2023-05-18T11:04:22;13.60;99.40
59025;DHT22;44806;48.008;13.666;2023-05-18T11:06:54;13.40;99.90
59025;DHT22;44806;48.008;13.666;2023-05-18T11:09:25;13.50;99.90
59025;DHT22;44806;48.008;13.666;2023-05-18T11:11:53;13.40;99.70
59025;DHT22;44806;48.008;13.666;2023-05-18T11:14:26;13.40;99.30
59025;DHT22;44806;48.008;13.666;2023-05-18T11:16:53;13.50;99.90
59025;DHT22;44806;48.008;13.666;2023-05-18T11:19:24;13.70;98.70
59025;DHT22;44806;48.008;13.666;2023-05-18T11:21:52;13.60;99.90
59025;DHT22;44806;48.008;13.666;2023-05-18T11:24:29;13.90;99.90
59025;DHT22;44806;48.008;13.666;2023-05-18T11:26:57;14.00;98.40
59025;DHT22;44806;48.008;13.666;2023-05-18T11:29:30;14.10;98.40
59025;DHT22;44806;48.008;13.666;2023-05-18T11:31:58;14.00;97.40
59025;DHT22;44806;48.008;13.666;2023-05-18T11:34:44;14.00;97.50
59025;DHT22;44806;48.008;13.666;2023-05-18T11:37:13;14.00;97.40
59025;DHT22;44806;48.008;13.666;2023-05-18T11:39:52;13.80;97.60
59025;DHT22;44806;48.008;13.666;2023-05-18T11:42:20;14.00;99.50
59025;DHT22;44806;48.008;13.666;2023-05-18T11:44:51;14.30;97.90
59025;DHT22;44806;48.008;13.666;2023-05-18T11:47:18;14.30;97.70
59025;DHT22;44806;48.008;13.666;2023-05-18T11:49:46;14.30;96.40
59025;DHT22;44806;48.008;13.666;2023-05-18T11:52:17;14.20;96.00
59025;DHT22;44806;48.008;13.666;2023-05-18T11:54:48;14.10;97.60
59025;DHT22;44806;48.008;13.666;2023-05-18T11:57:17;14.30;97.90
59025;DHT22;44806;48.008;13.666;2023-05-18T11:59:45;14.50;98.10
59025;DHT22;44806;48.008;13.666;2023-05-18T12:02:19;14.70;98.20
59025;DHT22;44806;48.008;13.666;2023-05-18T12:04:47;14.60;97.70
59025;DHT22;44806;48.008;13.666;2023-05-18T12:07:16;14.70;97.30
59025;DHT22;44806;48.008;13.666;2023-05-18T12:09:46;14.50;96.70
59025;DHT22;44806;48.008;13.666;2023-05-18T12:12:14;14.60;97.40
59025;DHT22;44806;48.008;13.666;2023-05-18T12:14:49;14.70;97.40
59025;DHT22;44806;48.008;13.666;2023-05-18T12:17:18;14.70;95.80
59025;DHT22;44806;48.008;13.666;2023-05-18T12:19:46;14.50;97.10
59025;DHT22;44806;48.008;13.666;2023-05-18T12:22:14;14.70;99.00
59025;DHT22;44806;48.008;13.666;2023-05-18T12:24:42;14.90;96.80
59025;DHT22;44806;48.008;13.666;2023-05-18T12:27:11;14.80;96.90
59025;DHT22;44806;48.008;13.666;2023-05-18T12:29:39;14.80;97.10
59025;DHT22;44806;48.008;13.666;2023-05-18T12:32:07;14.90;96.30
59025;DHT22;44806;48.008;13.666;2023-05-18T12:34:35;14.80;96.60
59025;DHT22;44806;48.008;13.666;2023-05-18T12:37:02;14.70;95.70
59025;DHT22;44806;48.008;13.666;2023-05-18T12:39:29;14.60;96.40
59025;DHT22;44806;48.008;13.666;2023-05-18T12:42:11;14.70;95.80
59025;DHT22;44806;48.008;13.666;2023-05-18T12:44:41;14.70;96.40
59025;DHT22;44806;48.008;13.666;2023-05-18T12:47:09;14.70;96.90
59025;DHT22;44806;48.008;13.666;2023-05-18T12:49:37;14.60;96.30
59025;DHT22;44806;48.008;13.666;2023-05-18T12:52:08;14.70;96.50
59025;DHT22;44806;48.008;13.666;2023-05-18T12:54:46;14.80;96.80
59025;DHT22;44806;48.008;13.666;2023-05-18T12:57:16;14.80;95.20
59025;DHT22;44806;48.008;13.666;2023-05-18T12:59:47;14.70;95.00
59025;DHT22;44806;48.008;13.666;2023-05-18T13:02:27;14.90;96.10
59025;DHT22;44806;48.008;13.666;2023-05-18T13:05:02;15.00;96.20
59025;DHT22;44806;48.008;13.666;2023-05-18T13:07:29;15.10;95.40
59025;DHT22;44806;48.008;13.666;2023-05-18T13:10:00;15.10;95.30
59025;DHT22;44806;48.008;13.666;2023-05-18T13:12:42;15.30;96.20
59025;DHT22;44806;48.008;13.666;2023-05-18T13:15:11;15.50;95.00
59025;DHT22;44806;48.008;13.666;2023-05-18T13:17:46;15.60;94.90
59025;DHT22;44806;48.008;13.666;2023-05-18T13:20:14;15.60;95.80
59025;DHT22;44806;48.008;13.666;2023-05-18T13:22:42;15.40;94.70
59025;DHT22;44806;48.008;13.666;2023-05-18T13:25:09;15.40;95.10
59025;DHT22;44806;48.008;13.666;2023-05-18T13:27:37;15.10;94.80
59025;DHT22;44806;48.008;13.666;2023-05-18T13:30:07;15.30;95.30
59025;DHT22;44806;48.008;13.666;2023-05-18T13:32:34;15.40;94.40
59025;DHT22;44806;48.008;13.666;2023-05-18T13:35:01;15.50;94.70
59025;DHT22;44806;48.008;13.666;2023-05-18T13:37:28;15.60;95.20
59025;DHT22;44806;48.008;13.666;2023-05-18T13:39:55;15.50;94.40
59025;DHT22;44806;48.008;13.666;2023-05-18T13:42:22;15.10;94.30
59025;DHT22;44806;48.008;13.666;2023-05-18T13:44:49;15.30;96.20
59025;DHT22;44806;48.008;13.666;2023-05-18T13:47:18;15.40;95.30
59025;DHT22;44806;48.008;13.666;2023-05-18T13:49:45;15.30;95.00
59025;DHT22;44806;48.008;13.666;2023-05-18T13:52:12;15.40;94.40
59025;DHT22;44806;48.008;13.666;2023-05-18T13:54:39;15.60;94.70
59025;DHT22;44806;48.008;13.666;2023-05-18T13:57:05;15.80;94.40
59025;DHT22;44806;48.008;13.666;2023-05-18T13:59:33;15.90;94.10
59025;DHT22;44806;48.008;13.666;2023-05-18T14:02:00;15.90;94.00
59025;DHT22;44806;48.008;13.666;2023-05-18T14:04:28;15.90;93.90
59025;DHT22;44806;48.008;13.666;2023-05-18T14:06:55;16.10;93.80
59025;DHT22;44806;48.008;13.666;2023-05-18T14:09:22;16.00;91.00
59025;DHT22;44806;48.008;13.666;2023-05-18T14:11:50;15.80;91.80
59025;DHT22;44806;48.008;13.666;2023-05-18T14:14:17;15.80;92.10
59025;DHT22;44806;48.008;13.666;2023-05-18T14:16:44;15.70;91.00
59025;DHT22;44806;48.008;13.666;2023-05-18T14:19:11;15.70;91.60
59025;DHT22;44806;48.008;13.666;2023-05-18T14:21:40;15.70;91.70
59025;DHT22;44806;48.008;13.666;2023-05-18T14:24:07;15.80;92.90
59025;DHT22;44806;48.008;13.666;2023-05-18T14:26:35;15.90;92.20
59025;DHT22;44806;48.008;13.666;2023-05-18T14:29:02;15.80;92.50
59025;DHT22;44806;48.008;13.666;2023-05-18T14:31:29;15.80;92.30
59025;DHT22;44806;48.008;13.666;2023-05-18T14:33:56;15.80;94.10
59025;DHT22;44806;48.008;13.666;2023-05-18T14:36:23;16.10;93.70
59025;DHT22;44806;48.008;13.666;2023-05-18T14:38:51;16.20;92.20
59025;DHT22;44806;48.008;13.666;2023-05-18T14:41:18;16.30;91.70
59025;DHT22;44806;48.008;13.666;2023-05-18T14:43:46;16.20;91.10
59025;DHT22;44806;48.008;13.666;2023-05-18T14:46:15;16.10;91.30
59025;DHT22;44806;48.008;13.666;2023-05-18T14:48:42;15.80;91.70
59025;DHT22;44806;48.008;13.666;2023-05-18T14:51:09;15.70;91.80
59025;DHT22;44806;48.008;13.666;2023-05-18T14:53:36;15.90;92.30
59025;DHT22;44806;48.008;13.666;2023-05-18T14:56:05;15.80;92.30
59025;DHT22;44806;48.008;13.666;2023-05-18T14:58:34;16.00;91.30
59025;DHT22;44806;48.008;13.666;2023-05-18T15:01:01;16.10;91.60
59025;DHT22;44806;48.008;13.666;2023-05-18T15:03:28;16.10;91.30
59025;DHT22;44806;48.008;13.666;2023-05-18T15:05:55;16.20;92.40
59025;DHT22;44806;48.008;13.666;2023-05-18T15:08:22;16.20;91.40
59025;DHT22;44806;48.008;13.666;2023-05-18T15:10:49;16.30;91.40
59025;DHT22;44806;48.008;13.666;2023-05-18T15:13:17;16.50;91.70
59025;DHT22;44806;48.008;13.666;2023-05-18T15:15:44;16.60;91.10
59025;DHT22;44806;48.008;13.666;2023-05-18T15:18:11;16.70;89.70
59025;DHT22;44806;48.008;13.666;2023-05-18T15:20:38;17.00;90.60
59025;DHT22;44806;48.008;13.666;2023-05-18T15:23:06;16.70;89.80
59025;DHT22;44806;48.008;13.666;2023-05-18T15:25:33;16.60;91.70